createdAt,value
2019-06-08T00:02:20.593Z,17.61
2019-06-08T00:04:53.052Z,17.63
2019-06-08T00:07:25.429Z,17.59
2019-06-08T00:09:57.797Z,17.51
2019-06-08T00:12:30.561Z,17.51
2019-06-08T00:15:02.899Z,17.51
2019-06-08T00:17:38.941Z,17.52
2019-06-08T00:20:11.894Z,17.52
2019-06-08T00:22:45.197Z,17.55
2019-06-08T00:25:18.962Z,17.58
2019-06-08T00:27:52.126Z,17.59
2019-06-08T00:30:24.976Z,17.55
2019-06-08T00:32:57.763Z,17.54
2019-06-08T00:35:30.329Z,17.54
2019-06-08T00:38:03.016Z,17.53
2019-06-08T00:40:35.602Z,17.55
2019-06-08T00:43:09.298Z,17.55
2019-06-08T00:45:42.178Z,17.56
2019-06-08T00:48:14.857Z,17.55
2019-06-08T00:50:47.638Z,17.57
2019-06-08T00:53:21.287Z,17.53
2019-06-08T00:55:54.018Z,17.48
2019-06-08T00:58:26.498Z,17.44
2019-06-08T01:00:58.942Z,17.40
2019-06-08T01:03:31.961Z,17.39
2019-06-08T01:06:04.848Z,17.38
2019-06-08T01:08:37.632Z,17.36
2019-06-08T01:11:10.210Z,17.35
2019-06-08T01:13:42.884Z,17.33
2019-06-08T01:16:15.670Z,17.27
2019-06-08T01:18:48.452Z,17.07
2019-06-08T01:21:21.312Z,16.85
2019-06-08T01:23:54.193Z,16.74
2019-06-08T01:26:28.203Z,16.74
2019-06-08T01:29:00.634Z,16.73
2019-06-08T01:31:33.527Z,16.75
2019-06-08T01:34:06.273Z,16.77
2019-06-08T01:36:39.048Z,16.75
2019-06-08T01:39:11.989Z,16.73
2019-06-08T01:41:44.516Z,16.67
2019-06-08T01:44:17.188Z,16.62
2019-06-08T01:46:49.676Z,16.65
2019-06-08T01:49:22.240Z,16.69
2019-06-08T01:51:55.147Z,16.69
2019-06-08T01:54:29.625Z,16.66
2019-06-08T01:57:02.229Z,16.65
2019-06-08T01:59:35.012Z,16.65
2019-06-08T02:02:07.691Z,16.74
2019-06-08T02:04:40.372Z,16.86
2019-06-08T02:07:13.015Z,16.95
2019-06-08T02:09:45.829Z,17.02
2019-06-08T02:12:18.713Z,17.05
2019-06-08T02:14:51.929Z,17.11
2019-06-08T02:17:25.166Z,17.16
2019-06-08T02:19:57.882Z,17.18
2019-06-08T02:22:31.002Z,17.19
2019-06-08T02:25:04.566Z,17.19
2019-06-08T02:27:37.487Z,17.19
2019-06-08T02:30:12.386Z,17.20
2019-06-08T02:32:44.865Z,17.24
2019-06-08T02:35:18.994Z,17.26
2019-06-08T02:37:51.169Z,17.29
2019-06-08T02:40:23.928Z,17.32
2019-06-08T02:42:56.713Z,17.33
2019-06-08T02:45:31.836Z,17.32
2019-06-08T02:48:02.810Z,17.26
2019-06-08T02:50:52.370Z,17.25
2019-06-08T02:53:26.311Z,17.24
2019-06-08T02:55:58.962Z,17.29
2019-06-08T02:58:33.630Z,17.37
2019-06-08T03:01:07.873Z,17.44
2019-06-08T03:03:41.495Z,17.52
2019-06-08T03:06:15.736Z,17.59
2019-06-08T03:08:51.190Z,17.66
2019-06-08T03:11:24.298Z,17.73
2019-06-08T03:13:58.357Z,17.79
2019-06-08T03:16:31.285Z,17.83
2019-06-08T03:19:21.196Z,17.88
2019-06-08T03:21:38.808Z,17.97
2019-06-08T03:24:11.856Z,18.03
2019-06-08T03:26:44.437Z,18.08
2019-06-08T03:29:17.005Z,18.14
2019-06-08T03:31:55.864Z,18.19
2019-06-08T03:34:23.589Z,18.24
2019-06-08T03:36:57.599Z,18.30
2019-06-08T03:39:29.483Z,18.37
2019-06-08T03:42:01.849Z,18.45
2019-06-08T03:44:36.351Z,18.53
2019-06-08T03:47:08.784Z,18.64
2019-06-08T03:49:53.610Z,18.74
2019-06-08T03:52:15.622Z,18.89
2019-06-08T03:54:48.511Z,19.01
2019-06-08T03:57:20.790Z,19.14
2019-06-08T03:59:53.451Z,19.26
2019-06-08T04:02:25.835Z,19.37
2019-06-08T04:04:58.512Z,19.51
2019-06-08T04:07:31.304Z,19.62
2019-06-08T04:10:05.316Z,19.74
2019-06-08T04:12:39.738Z,19.83
2019-06-08T04:15:12.299Z,19.92
2019-06-08T04:17:46.253Z,20.02
2019-06-08T04:20:18.782Z,20.11
2019-06-08T04:22:51.173Z,20.21
2019-06-08T04:25:23.639Z,20.33
2019-06-08T04:27:56.413Z,20.44
2019-06-08T04:30:28.886Z,20.56
2019-06-08T04:33:01.789Z,20.65
2019-06-08T04:35:34.039Z,20.74
2019-06-08T04:38:06.717Z,20.81
2019-06-08T04:40:40.025Z,20.88
2019-06-08T04:43:13.209Z,20.95
2019-06-08T04:45:48.056Z,21.05
2019-06-08T04:48:21.125Z,21.13
2019-06-08T04:50:53.816Z,21.20
2019-06-08T04:53:26.776Z,21.28
2019-06-08T04:55:59.675Z,21.33
2019-06-08T04:58:32.088Z,21.38
2019-06-08T05:01:04.829Z,21.44
2019-06-08T05:03:39.245Z,21.52
2019-06-08T05:06:11.839Z,21.57
2019-06-08T05:08:45.211Z,21.62
2019-06-08T05:11:17.802Z,21.66
2019-06-08T05:13:50.451Z,21.71
2019-06-08T05:16:23.177Z,21.81
2019-06-08T05:18:56.725Z,21.85
2019-06-08T05:21:29.508Z,21.92
2019-06-08T05:24:02.031Z,22.00
2019-06-08T05:26:34.495Z,22.06
2019-06-08T05:29:07.079Z,22.15
2019-06-08T05:31:39.765Z,22.22
2019-06-08T05:34:12.436Z,22.31
2019-06-08T05:36:45.439Z,22.37
2019-06-08T05:39:18.204Z,22.45
2019-06-08T05:41:52.209Z,22.56
2019-06-08T05:44:24.790Z,22.64
2019-06-08T05:46:57.478Z,22.73
2019-06-08T05:49:30.064Z,22.84
2019-06-08T05:52:02.792Z,22.90
2019-06-08T05:54:39.801Z,22.99
2019-06-08T05:57:14.069Z,23.07
2019-06-08T05:59:50.733Z,23.16
2019-06-08T06:02:29.289Z,23.24
2019-06-08T06:05:02.068Z,23.34
2019-06-08T06:07:34.580Z,23.41
2019-06-08T06:10:07.366Z,23.49
2019-06-08T06:12:40.910Z,23.58
2019-06-08T06:15:13.949Z,23.67
2019-06-08T06:17:48.453Z,23.75
2019-06-08T06:20:21.874Z,23.83
2019-06-08T06:22:58.446Z,23.88
2019-06-08T06:25:29.553Z,23.93
2019-06-08T06:28:05.438Z,24.01
2019-06-08T06:30:36.481Z,24.14
2019-06-08T06:33:09.065Z,24.26
2019-06-08T06:35:41.739Z,24.34
2019-06-08T06:38:14.111Z,24.41
2019-06-08T06:40:48.051Z,24.50
2019-06-08T06:43:20.597Z,24.60
2019-06-08T06:45:53.073Z,24.67
2019-06-08T06:48:25.880Z,24.75
2019-06-08T06:50:58.394Z,24.87
2019-06-08T06:53:31.148Z,24.96
2019-06-08T06:56:03.583Z,25.07
2019-06-08T06:58:37.193Z,25.16
2019-06-08T07:01:09.764Z,25.25
2019-06-08T07:03:44.121Z,25.31
2019-06-08T07:06:16.760Z,25.50
2019-06-08T07:08:50.318Z,25.50
2019-06-08T07:11:22.736Z,25.64
2019-06-08T07:13:55.620Z,25.74
2019-06-08T07:16:28.714Z,25.81
2019-06-08T07:19:01.301Z,25.94
2019-06-08T07:21:41.807Z,26.04
2019-06-08T07:24:08.167Z,26.07
2019-06-08T07:26:40.461Z,26.23
2019-06-08T07:29:13.568Z,26.31
2019-06-08T07:31:46.930Z,26.35
2019-06-08T07:34:20.413Z,26.37
2019-06-08T07:36:53.559Z,26.43
2019-06-08T07:39:27.897Z,26.53
2019-06-08T07:42:00.426Z,26.61
2019-06-08T07:44:33.106Z,26.72
2019-06-08T07:47:05.694Z,26.76
2019-06-08T07:49:38.673Z,26.81
2019-06-08T07:52:11.279Z,26.84
2019-06-08T07:54:43.926Z,26.92
2019-06-08T07:57:16.301Z,26.94
2019-06-08T07:59:50.310Z,26.97
2019-06-08T08:02:22.709Z,27.02
2019-06-08T08:04:56.688Z,27.07
2019-06-08T08:07:29.267Z,27.10
2019-06-08T08:10:01.778Z,27.18
2019-06-08T08:12:34.620Z,27.28
2019-06-08T08:15:08.739Z,27.35
2019-06-08T08:17:41.592Z,27.40
2019-06-08T08:20:14.309Z,27.47
2019-06-08T08:22:49.274Z,27.57
2019-06-08T08:25:20.897Z,27.59
2019-06-08T08:27:53.674Z,27.61
2019-06-08T08:30:28.425Z,27.67
2019-06-08T08:33:03.144Z,27.73
2019-06-08T08:35:35.093Z,27.74
2019-06-08T08:38:07.797Z,27.73
2019-06-08T08:40:40.246Z,27.76
2019-06-08T08:43:13.037Z,27.79
2019-06-08T08:45:47.686Z,27.82
2019-06-08T08:48:27.497Z,27.83
2019-06-08T08:50:54.362Z,27.84
2019-06-08T08:53:27.993Z,27.87
2019-06-08T08:56:02.410Z,27.94
2019-06-08T08:58:34.744Z,27.95
2019-06-08T09:01:08.166Z,27.98
2019-06-08T09:03:40.817Z,28.02
2019-06-08T09:06:13.497Z,28.08
2019-06-08T09:08:48.387Z,28.12
2019-06-08T09:11:20.401Z,28.16
2019-06-08T09:13:53.571Z,28.20
2019-06-08T09:16:28.554Z,28.22
2019-06-08T09:19:02.899Z,28.26
2019-06-08T09:21:34.591Z,28.29
2019-06-08T09:24:07.828Z,28.33
2019-06-08T09:26:40.274Z,28.43
2019-06-08T09:29:13.053Z,28.42
2019-06-08T09:31:48.848Z,28.47
2019-06-08T09:34:20.118Z,28.50
2019-06-08T09:36:54.952Z,28.58
2019-06-08T09:39:28.635Z,28.61
2019-06-08T09:42:03.094Z,28.64
2019-06-08T09:44:37.552Z,28.64
2019-06-08T09:47:12.608Z,28.69
2019-06-08T09:49:43.605Z,28.71
2019-06-08T09:52:18.368Z,28.75
2019-06-08T09:54:50.401Z,28.76
2019-06-08T09:57:22.868Z,28.80
2019-06-08T09:59:57.202Z,28.83
2019-06-08T10:02:29.999Z,28.86
2019-06-08T10:05:04.497Z,28.91
2019-06-08T10:07:38.807Z,29.00
2019-06-08T10:10:11.278Z,29.04
2019-06-08T10:12:44.058Z,28.91
2019-06-08T10:15:18.714Z,28.81
2019-06-08T10:17:52.097Z,28.90
2019-06-08T10:20:24.573Z,29.04
2019-06-08T10:22:59.700Z,29.21
2019-06-08T10:25:31.144Z,29.39
2019-06-08T10:28:09.890Z,29.50
2019-06-08T10:30:38.421Z,29.57
2019-06-08T10:33:10.962Z,29.58
2019-06-08T10:35:44.221Z,29.48
2019-06-08T10:38:18.085Z,29.43
2019-06-08T10:41:10.805Z,29.53
2019-06-08T10:43:39.073Z,29.63
2019-06-08T10:46:16.619Z,29.76
2019-06-08T10:48:48.432Z,29.86
2019-06-08T10:51:19.757Z,29.96
2019-06-08T10:53:53.631Z,30.09
2019-06-08T10:56:28.378Z,30.32
2019-06-08T10:59:03.457Z,30.64
2019-06-08T11:01:34.980Z,30.94
2019-06-08T11:04:09.263Z,31.16
2019-06-08T11:06:41.773Z,31.38
2019-06-08T11:09:15.362Z,31.64
2019-06-08T11:11:48.319Z,31.79
2019-06-08T11:14:22.780Z,31.63
2019-06-08T11:16:55.047Z,31.47
2019-06-08T11:19:27.731Z,31.36
2019-06-08T11:22:02.665Z,31.32
2019-06-08T11:24:34.226Z,31.36
2019-06-08T11:27:10.605Z,31.32
2019-06-08T11:29:40.910Z,31.29
2019-06-08T11:32:13.381Z,31.27
2019-06-08T11:34:48.665Z,31.30
2019-06-08T11:37:21.227Z,31.26
2019-06-08T11:39:53.799Z,31.22
2019-06-08T11:42:28.534Z,31.19
2019-06-08T11:45:02.101Z,31.14
2019-06-08T11:47:34.696Z,31.15
2019-06-08T11:50:11.653Z,31.20
2019-06-08T11:52:43.066Z,31.26
2019-06-08T11:55:18.029Z,31.35
2019-06-08T11:57:50.006Z,31.50
2019-06-08T12:00:41.937Z,31.62
2019-06-08T12:03:14.825Z,31.71
2019-06-08T12:05:47.780Z,31.76
2019-06-08T12:08:21.515Z,31.85
2019-06-08T12:10:54.451Z,31.97
2019-06-08T12:13:27.822Z,32.06
2019-06-08T12:16:00.177Z,32.12
2019-06-08T12:18:32.537Z,32.01
2019-06-08T12:21:05.572Z,31.91
2019-06-08T12:23:37.618Z,31.91
2019-06-08T12:26:10.235Z,31.96
2019-06-08T12:28:42.757Z,32.07
2019-06-08T12:31:19.314Z,32.01
2019-06-08T12:33:49.477Z,31.97
2019-06-08T12:36:22.226Z,31.91
2019-06-08T12:38:54.825Z,31.81
2019-06-08T12:41:31.133Z,31.72
2019-06-08T12:44:02.110Z,31.61
2019-06-08T12:46:34.580Z,31.52
2019-06-08T12:49:08.635Z,31.43
2019-06-08T12:51:41.354Z,31.47
2019-06-08T12:54:14.442Z,31.48
2019-06-08T12:56:47.946Z,31.39
2019-06-08T12:59:22.539Z,31.40
2019-06-08T13:01:54.549Z,31.44
2019-06-08T13:04:28.664Z,31.52
2019-06-08T13:07:01.137Z,31.60
2019-06-08T13:09:33.824Z,31.60
2019-06-08T13:12:07.926Z,31.69
2019-06-08T13:14:40.505Z,31.80
2019-06-08T13:17:14.599Z,31.99
2019-06-08T13:19:48.219Z,32.24
2019-06-08T13:22:27.863Z,32.38
2019-06-08T13:24:54.911Z,32.43
2019-06-08T13:27:28.196Z,32.42
2019-06-08T13:30:00.687Z,32.31
2019-06-08T13:32:33.563Z,32.46
2019-06-08T13:35:10.424Z,32.65
2019-06-08T13:37:43.124Z,32.82
2019-06-08T13:40:18.586Z,32.95
2019-06-08T13:42:51.256Z,33.08
2019-06-08T13:45:23.824Z,33.21
2019-06-08T13:47:58.718Z,33.42
2019-06-08T13:50:30.629Z,33.71
2019-06-08T13:53:03.404Z,34.09
2019-06-08T13:55:48.368Z,34.43
2019-06-08T13:58:10.096Z,34.61
2019-06-08T14:00:42.772Z,35.03
2019-06-08T14:03:18.174Z,35.49
2019-06-08T14:05:49.563Z,35.95
2019-06-08T14:08:23.927Z,36.33
2019-06-08T14:11:00.445Z,36.75
2019-06-08T14:13:34.254Z,37.13
2019-06-08T14:16:04.690Z,37.19
2019-06-08T14:18:38.606Z,36.96
2019-06-08T14:21:09.971Z,36.77
2019-06-08T14:23:42.518Z,37.02
2019-06-08T14:26:14.993Z,37.43
2019-06-08T14:28:50.361Z,37.78
2019-06-08T14:31:23.995Z,38.24
2019-06-08T14:33:56.111Z,38.43
2019-06-08T14:36:30.279Z,38.45
2019-06-08T14:39:02.814Z,38.41
2019-06-08T14:41:36.813Z,38.22
2019-06-08T14:44:09.290Z,37.84
2019-06-08T14:46:41.633Z,37.01
2019-06-08T14:49:13.821Z,36.17
2019-06-08T14:51:50.405Z,35.25
2019-06-08T14:54:26.541Z,34.57
2019-06-08T14:56:57.780Z,34.39
2019-06-08T14:59:31.800Z,34.07
2019-06-08T15:02:04.722Z,33.63
2019-06-08T15:04:39.893Z,33.06
2019-06-08T15:07:11.295Z,32.58
2019-06-08T15:09:43.657Z,32.21
2019-06-08T15:12:17.879Z,31.85
2019-06-08T15:14:50.456Z,31.50
2019-06-08T15:17:23.806Z,31.18
2019-06-08T15:19:55.836Z,30.86
2019-06-08T15:22:29.066Z,30.54
2019-06-08T15:25:02.296Z,30.49
2019-06-08T15:27:35.076Z,30.46
2019-06-08T15:30:08.067Z,30.79
2019-06-08T15:32:40.439Z,31.49
2019-06-08T15:35:13.528Z,32.07
2019-06-08T15:37:47.845Z,33.04
2019-06-08T15:40:21.468Z,33.24
2019-06-08T15:42:54.018Z,32.85
2019-06-08T15:45:30.941Z,32.88
2019-06-08T15:48:01.848Z,33.66
2019-06-08T15:50:34.826Z,34.71
2019-06-08T15:53:08.292Z,35.53
2019-06-08T15:55:40.805Z,35.80
2019-06-08T16:00:46.165Z,34.20
2019-06-08T16:03:18.794Z,34.20
2019-06-08T16:05:50.727Z,34.72
2019-06-08T16:08:23.713Z,35.19
2019-06-08T16:10:56.486Z,35.58
2019-06-08T16:13:28.842Z,35.75
2019-06-08T16:16:00.934Z,35.93
2019-06-08T16:18:33.591Z,35.96
2019-06-08T16:21:06.045Z,36.15
2019-06-08T16:23:38.960Z,36.03
2019-06-08T16:26:11.322Z,35.84
2019-06-08T16:28:43.999Z,35.57
2019-06-08T16:31:16.784Z,35.32
2019-06-08T16:33:49.261Z,34.92
2019-06-08T16:36:22.669Z,34.39
2019-06-08T16:38:55.139Z,33.51
2019-06-08T16:41:28.092Z,32.51
2019-06-08T16:44:00.594Z,31.72
2019-06-08T16:46:34.754Z,30.91
2019-06-08T16:49:08.321Z,30.27
2019-06-08T16:51:41.089Z,29.71
2019-06-08T16:54:13.722Z,29.27
2019-06-08T16:56:46.144Z,28.82
2019-06-08T16:59:18.924Z,28.45
2019-06-08T17:01:51.711Z,28.09
2019-06-08T17:04:24.185Z,27.75
2019-06-08T17:06:56.885Z,27.44
2019-06-08T17:09:29.668Z,27.15
2019-06-08T17:12:02.342Z,26.95
2019-06-08T17:14:36.326Z,26.71
2019-06-08T17:17:08.809Z,26.47
2019-06-08T17:19:41.489Z,26.26
2019-06-08T17:22:14.071Z,26.06
2019-06-08T17:24:46.542Z,25.87
2019-06-08T17:27:26.820Z,25.69
2019-06-08T17:29:53.539Z,25.54
2019-06-08T17:32:26.219Z,25.37
2019-06-08T17:34:58.594Z,24.96
2019-06-08T17:37:31.699Z,24.96
2019-06-08T17:40:04.969Z,24.81
2019-06-08T17:42:37.731Z,24.64
2019-06-08T17:45:10.375Z,24.46
2019-06-08T17:47:43.015Z,24.27
2019-06-08T17:50:15.794Z,24.14
2019-06-08T17:52:48.165Z,24.02
2019-06-08T17:55:22.178Z,23.90
2019-06-08T17:57:54.750Z,23.80
2019-06-08T18:00:27.292Z,23.69
2019-06-08T18:03:00.715Z,23.58
2019-06-08T18:05:34.334Z,23.45
2019-06-08T18:08:08.237Z,23.33
2019-06-08T18:10:41.789Z,23.24
2019-06-08T18:13:14.727Z,23.16
2019-06-08T18:15:48.295Z,23.07
2019-06-08T18:18:20.900Z,22.99
2019-06-08T18:20:53.604Z,22.88
2019-06-08T18:23:27.891Z,22.80
2019-06-08T18:26:00.496Z,22.71
2019-06-08T18:28:34.502Z,22.59
2019-06-08T18:31:07.506Z,22.50
2019-06-08T18:33:41.683Z,22.42
2019-06-08T18:36:13.861Z,22.34
2019-06-08T18:38:48.529Z,22.23
2019-06-08T18:41:20.648Z,22.13
2019-06-08T18:43:53.129Z,22.04
2019-06-08T18:46:27.229Z,21.96
2019-06-08T18:48:59.617Z,21.91
2019-06-08T18:51:32.289Z,21.85
2019-06-08T18:54:11.320Z,21.80
2019-06-08T18:56:41.877Z,21.74
2019-06-08T18:59:14.741Z,21.68
2019-06-08T19:01:49.460Z,21.65
2019-06-08T19:04:21.527Z,21.60
2019-06-08T19:06:55.055Z,21.51
2019-06-08T19:09:28.423Z,21.43
2019-06-08T19:12:00.793Z,21.39
2019-06-08T19:14:33.374Z,21.33
2019-06-08T19:17:07.537Z,21.28
2019-06-08T19:19:44.331Z,21.28
2019-06-08T19:22:14.076Z,21.25
2019-06-08T19:24:49.474Z,21.20
2019-06-08T19:40:09.892Z,21.15
2019-06-08T19:42:53.029Z,21.05
2019-06-08T19:45:18.163Z,21.02
2019-06-08T19:47:50.694Z,20.95
2019-06-08T19:50:23.373Z,20.91
2019-06-08T19:52:57.848Z,20.89
2019-06-08T19:55:30.889Z,20.87
2019-06-08T19:58:03.254Z,20.85
2019-06-08T20:00:38.667Z,20.85
2019-06-08T20:03:10.258Z,20.84
2019-06-08T20:05:42.926Z,20.83
2019-06-08T20:10:50.715Z,20.81
2019-06-08T20:13:23.230Z,20.82
2019-06-08T20:16:01.280Z,20.78
2019-06-08T20:18:29.817Z,20.75
2019-06-08T20:21:02.598Z,20.73
2019-06-08T20:23:35.274Z,20.69
2019-06-08T20:26:08.500Z,20.68
2019-06-08T20:28:43.542Z,20.68
2019-06-08T20:31:18.043Z,20.65
2019-06-08T20:33:51.959Z,20.64
2019-06-08T20:36:24.203Z,20.59
2019-06-08T20:38:58.359Z,20.57
2019-06-08T20:41:31.036Z,20.54
2019-06-08T20:44:03.372Z,20.51
2019-06-08T20:46:37.784Z,20.48
2019-06-08T20:49:10.267Z,20.48
2019-06-08T20:51:42.944Z,20.44
2019-06-08T20:54:17.242Z,20.44
2019-06-08T20:56:50.904Z,20.43
2019-06-08T20:59:29.972Z,20.39
2019-06-08T21:01:58.815Z,20.38
2019-06-08T21:04:31.670Z,20.39
2019-06-08T21:07:04.551Z,20.34
2019-06-08T21:09:38.358Z,20.33
2019-06-08T21:12:10.842Z,20.30
2019-06-08T21:14:45.125Z,20.33
2019-06-08T21:17:18.041Z,20.39
2019-06-08T21:19:50.882Z,20.43
2019-06-08T21:22:23.288Z,20.46
2019-06-08T21:24:59.760Z,20.50
2019-06-08T21:27:29.192Z,20.52
2019-06-08T21:30:08.414Z,20.54
2019-06-08T21:32:37.184Z,20.54
2019-06-08T21:35:10.784Z,20.55
2019-06-08T21:37:43.365Z,20.59
2019-06-08T21:40:17.602Z,20.58
2019-06-08T21:42:52.126Z,20.55
2019-06-08T21:45:24.063Z,20.56
2019-06-08T21:47:59.002Z,20.55
2019-06-08T21:50:30.755Z,20.59
2019-06-08T21:53:03.442Z,20.62
2019-06-08T21:55:38.062Z,20.66
2019-06-08T21:58:10.023Z,20.70
2019-06-08T22:00:43.698Z,20.70
2019-06-08T22:03:17.644Z,20.70
2019-06-08T22:05:50.062Z,20.64
2019-06-08T22:08:22.793Z,20.51
2019-06-08T22:10:58.953Z,20.46
2019-06-08T22:13:29.769Z,20.40
2019-06-08T22:16:04.257Z,20.39
2019-06-08T22:18:38.064Z,20.36
2019-06-08T22:21:10.692Z,20.33
2019-06-08T22:23:43.167Z,20.31
2019-06-08T22:26:17.783Z,20.28
2019-06-08T22:28:52.067Z,20.29
2019-06-08T22:31:27.603Z,20.27
2019-06-08T22:34:02.075Z,20.20
2019-06-08T22:36:33.325Z,20.16
2019-06-08T22:39:08.081Z,20.18
2019-06-08T22:41:42.382Z,20.23
2019-06-08T22:44:17.575Z,20.24
2019-06-08T22:46:49.170Z,20.25
2019-06-08T22:49:21.643Z,20.24
2019-06-08T22:51:57.286Z,20.16
2019-06-08T22:54:28.349Z,20.00
2019-06-08T22:57:02.952Z,19.90
2019-06-08T22:59:37.042Z,19.89
2019-06-08T23:02:09.380Z,19.95
2019-06-08T23:04:42.119Z,19.99
2019-06-08T23:07:28.400Z,19.99
2019-06-08T23:09:48.609Z,20.00
2019-06-08T23:12:21.213Z,19.96
2019-06-08T23:14:54.357Z,19.95
2019-06-08T23:17:28.011Z,19.89
2019-06-08T23:20:01.883Z,19.81
2019-06-08T23:22:33.774Z,19.76
2019-06-08T23:25:08.904Z,19.73
2019-06-08T23:27:40.540Z,19.72
2019-06-08T23:30:13.288Z,19.71
2019-06-08T23:32:47.905Z,19.76
2019-06-08T23:35:19.012Z,19.82
2019-06-08T23:37:51.050Z,19.84
2019-06-08T23:40:23.835Z,19.86
2019-06-08T23:42:58.502Z,19.92
2019-06-08T23:45:30.623Z,19.93
2019-06-08T23:48:04.594Z,19.92
2019-06-08T23:50:37.935Z,19.89
2019-06-08T23:53:10.953Z,19.90
2019-06-08T23:55:43.733Z,19.89
2019-06-08T23:58:17.723Z,19.86
